createdAt,value
2018-11-01T00:00:46.706Z,84.85
2018-11-01T00:03:14.685Z,87.85
2018-11-01T00:05:42.582Z,87.85
2018-11-01T00:08:10.422Z,85.80
2018-11-01T00:10:38.274Z,90.45
2018-11-01T00:13:06.155Z,86.30
2018-11-01T00:15:33.995Z,84.52
2018-11-01T00:18:01.932Z,86.72
2018-11-01T00:20:29.811Z,86.47
2018-11-01T00:22:57.804Z,87.53
2018-11-01T00:25:25.678Z,83.92
2018-11-01T00:27:53.551Z,85.60
2018-11-01T00:30:21.508Z,86.95
2018-11-01T00:32:50.448Z,85.83
2018-11-01T00:35:18.279Z,86.57
2018-11-01T00:37:46.170Z,88.15
2018-11-01T00:40:14.731Z,90.42
2018-11-01T00:42:43.493Z,90.30
2018-11-01T00:45:11.853Z,86.65
2018-11-01T00:47:39.690Z,88.40
2018-11-01T00:50:10.050Z,86.45
2018-11-01T00:52:38.054Z,84.77
2018-11-01T00:55:06.515Z,88.22
2018-11-01T00:57:34.480Z,86.95
2018-11-01T01:00:02.383Z,86.97
2018-11-01T01:02:30.409Z,85.83
2018-11-01T01:04:58.372Z,87.40
2018-11-01T01:07:38.372Z,88.85
2018-11-01T01:10:09.333Z,88.92
2018-11-01T01:12:37.288Z,86.10
2018-11-01T01:15:06.327Z,87.50
2018-11-01T01:17:34.187Z,90.72
2018-11-01T01:25:59.059Z,86.78
2018-11-01T01:28:27.152Z,88.78
2018-11-01T01:30:55.296Z,88.72
2018-11-01T01:33:23.406Z,85.95
2018-11-01T01:35:51.357Z,89.75
2018-11-01T01:38:19.555Z,88.45
2018-11-01T01:40:47.653Z,88.55
2018-11-01T01:43:15.705Z,93.25
2018-11-01T01:45:43.809Z,88.97
2018-11-01T01:48:11.800Z,87.97
2018-11-01T01:50:39.769Z,85.47
2018-11-01T01:53:07.761Z,85.60
2018-11-01T01:55:35.814Z,86.02
2018-11-01T01:58:04.527Z,87.60
2018-11-01T02:00:32.594Z,89.15
2018-11-01T02:03:00.536Z,86.28
2018-11-01T02:05:28.544Z,89.17
2018-11-01T02:07:56.560Z,87.47
2018-11-01T02:10:24.663Z,86.95
2018-11-01T02:12:52.872Z,85.40
2018-11-01T02:15:21.406Z,85.85
2018-11-01T02:17:49.412Z,86.53
2018-11-01T02:20:18.813Z,86.28
2018-11-01T02:22:47.249Z,87.53
2018-11-01T02:25:15.366Z,87.80
2018-11-01T02:27:48.864Z,86.65
2018-11-01T02:30:17.623Z,86.82
2018-11-01T02:35:20.629Z,86.22
2018-11-01T02:37:48.959Z,85.92
2018-11-01T02:40:17.257Z,86.05
2018-11-01T02:42:45.414Z,88.10
2018-11-01T02:45:14.325Z,86.95
2018-11-01T02:47:42.540Z,86.42
2018-11-01T02:50:11.593Z,86.80
2018-11-01T02:52:39.744Z,82.70
2018-11-01T02:55:08.467Z,87.15
2018-11-01T02:57:36.417Z,86.08
2018-11-01T03:00:06.497Z,89.62
2018-11-01T03:02:34.628Z,85.55
2018-11-01T03:05:02.685Z,85.57
2018-11-01T03:07:30.654Z,84.17
2018-11-01T03:09:58.734Z,87.15
2018-11-01T03:12:26.684Z,91.10
2018-11-01T03:14:54.789Z,84.83
2018-11-01T03:17:22.762Z,85.50
2018-11-01T03:19:50.797Z,85.17
2018-11-01T03:22:18.948Z,82.42
2018-11-01T03:24:47.029Z,83.65
2018-11-01T03:27:15.025Z,87.90
2018-11-01T03:29:44.591Z,86.05
2018-11-01T03:32:12.638Z,85.17
2018-11-01T03:34:40.719Z,86.12
2018-11-01T03:39:42.626Z,85.90
2018-11-01T03:42:10.293Z,83.62
2018-11-01T03:44:37.995Z,84.07
2018-11-01T03:47:05.646Z,86.63
2018-11-01T03:49:33.259Z,87.65
2018-11-01T03:52:00.914Z,85.62
2018-11-01T03:54:28.475Z,84.13
2018-11-01T03:56:56.107Z,83.72
2018-11-01T03:59:23.730Z,83.40
2018-11-01T04:01:51.371Z,84.20
2018-11-01T04:04:18.943Z,85.97
2018-11-01T04:06:46.558Z,82.22
2018-11-01T04:09:14.234Z,83.82
2018-11-01T04:11:42.064Z,84.35
2018-11-01T04:14:09.918Z,83.75
2018-11-01T04:16:37.784Z,87.65
2018-11-01T04:19:05.818Z,83.85
2018-11-01T04:21:33.649Z,83.92
2018-11-01T04:24:01.356Z,83.10
2018-11-01T04:26:28.905Z,82.25
2018-11-01T04:28:57.073Z,83.07
2018-11-01T04:31:24.625Z,83.12
2018-11-01T04:33:52.316Z,84.50
2018-11-01T04:36:19.952Z,87.42
2018-11-01T04:38:47.453Z,83.58
2018-11-01T04:41:15.115Z,87.92
2018-11-01T04:43:42.661Z,83.15
2018-11-01T04:46:10.331Z,85.83
2018-11-01T04:48:37.877Z,84.42
2018-11-01T04:51:05.596Z,86.05
2018-11-01T04:53:33.234Z,89.87
2018-11-01T04:56:00.881Z,86.25
2018-11-01T04:58:28.546Z,84.00
2018-11-01T05:00:56.203Z,83.55
2018-11-01T05:03:23.835Z,85.75
2018-11-01T05:05:51.409Z,83.87
2018-11-01T05:08:19.916Z,83.50
2018-11-01T05:10:47.622Z,84.70
2018-11-01T05:13:15.251Z,83.75
2018-11-01T05:15:42.915Z,84.20
2018-11-01T05:18:10.627Z,83.92
2018-11-01T05:20:38.194Z,84.07
2018-11-01T05:23:05.878Z,87.20
2018-11-01T05:25:34.997Z,84.87
2018-11-01T05:28:03.137Z,83.92
2018-11-01T05:30:32.388Z,85.92
2018-11-01T05:33:01.830Z,86.05
2018-11-01T05:35:38.411Z,86.80
2018-11-01T05:38:06.338Z,86.92
2018-11-01T05:40:34.208Z,84.35
2018-11-01T05:43:02.103Z,84.32
2018-11-01T05:45:30.011Z,85.42
2018-11-01T05:47:57.868Z,83.97
2018-11-01T05:50:25.709Z,84.62
2018-11-01T05:52:53.675Z,85.38
2018-11-01T05:55:21.616Z,84.07
2018-11-01T05:57:49.439Z,84.13
2018-11-01T06:00:17.344Z,86.22
2018-11-01T06:02:46.949Z,83.50
2018-11-01T06:05:14.801Z,86.08
2018-11-01T06:07:46.492Z,85.17
2018-11-01T06:10:14.386Z,85.32
2018-11-01T06:12:42.262Z,87.25
2018-11-01T06:15:10.691Z,84.50
2018-11-01T06:17:38.626Z,90.22
2018-11-01T06:20:07.999Z,87.82
2018-11-01T06:22:35.896Z,85.45
2018-11-01T06:25:04.196Z,86.92
2018-11-01T06:27:32.211Z,85.05
2018-11-01T06:30:02.005Z,87.92
2018-11-01T06:32:30.066Z,84.85
2018-11-01T06:35:00.649Z,88.12
2018-11-01T06:37:28.577Z,86.10
2018-11-01T06:39:56.497Z,86.75
2018-11-01T06:42:24.564Z,85.05
2018-11-01T06:44:52.474Z,84.60
2018-11-01T06:47:20.382Z,87.12
2018-11-01T06:49:48.283Z,85.53
2018-11-01T06:52:16.165Z,84.58
2018-11-01T06:54:44.026Z,87.40
2018-11-01T06:57:12.050Z,86.05
2018-11-01T06:59:39.981Z,87.40
2018-11-01T07:02:08.096Z,85.25
2018-11-01T07:04:36.227Z,89.22
2018-11-01T07:07:04.305Z,85.10
2018-11-01T07:09:32.172Z,91.80
2018-11-01T07:12:00.111Z,83.87
2018-11-01T07:14:28.034Z,86.20
2018-11-01T07:16:56.098Z,84.65
2018-11-01T07:19:23.966Z,84.67
2018-11-01T07:21:51.826Z,85.60
2018-11-01T07:24:19.846Z,86.90
2018-11-01T07:26:47.789Z,86.00
2018-11-01T07:29:15.678Z,88.60
2018-11-01T07:31:43.578Z,88.42
2018-11-01T07:34:11.726Z,85.67
2018-11-01T07:36:39.594Z,86.97
2018-11-01T07:39:08.829Z,90.30
2018-11-01T07:41:37.265Z,87.08
2018-11-01T07:44:05.866Z,88.58
2018-11-01T07:46:33.854Z,90.20
2018-11-01T07:49:01.903Z,88.52
2018-11-01T07:51:29.679Z,89.37
2018-11-01T07:53:57.619Z,91.72
2018-11-01T07:56:25.568Z,90.97
2018-11-01T07:58:54.414Z,92.85
2018-11-01T08:01:22.460Z,89.47
2018-11-01T08:03:50.374Z,90.67
2018-11-01T08:06:18.290Z,90.22
2018-11-01T08:08:47.339Z,89.52
2018-11-01T08:11:15.329Z,90.12
2018-11-01T08:13:43.339Z,91.17
2018-11-01T08:16:11.215Z,93.33
2018-11-01T08:18:39.137Z,91.02
2018-11-01T08:21:07.412Z,90.83
2018-11-01T08:23:35.151Z,91.82
2018-11-01T08:26:12.219Z,91.28
2018-11-01T08:28:40.156Z,91.57
2018-11-01T08:31:08.062Z,94.42
2018-11-01T08:33:35.999Z,92.00
2018-11-01T08:36:03.909Z,94.67
2018-11-01T08:38:32.025Z,93.42
2018-11-01T08:41:00.131Z,91.82
2018-11-01T08:43:28.136Z,93.92
2018-11-01T08:45:56.011Z,98.37
2018-11-01T08:48:23.988Z,94.13
2018-11-01T08:50:52.253Z,91.55
2018-11-01T08:53:20.244Z,94.65
2018-11-01T08:55:48.203Z,95.30
2018-11-01T08:58:16.074Z,93.03
2018-11-01T09:00:44.040Z,93.78
2018-11-01T09:03:12.056Z,92.37
2018-11-01T09:05:39.950Z,92.55
2018-11-01T09:08:07.920Z,92.17
2018-11-01T09:10:35.791Z,93.82
2018-11-01T09:13:03.755Z,92.75
2018-11-01T09:15:31.654Z,93.50
2018-11-01T09:17:59.790Z,95.65
2018-11-01T09:20:27.914Z,92.97
2018-11-01T09:22:55.851Z,93.62
2018-11-01T09:25:23.881Z,94.80
2018-11-01T09:27:51.875Z,91.72
2018-11-01T09:30:20.589Z,92.72
2018-11-01T09:32:48.603Z,91.50
2018-11-01T09:35:22.044Z,93.15
2018-11-01T09:37:49.941Z,92.22
2018-11-01T09:40:17.865Z,94.45
2018-11-01T09:42:45.828Z,94.62
2018-11-01T09:45:13.863Z,93.55
2018-11-01T09:47:42.238Z,92.62
2018-11-01T09:50:10.609Z,95.40
2018-11-01T09:52:38.836Z,91.35
2018-11-01T09:55:06.917Z,92.22
2018-11-01T09:57:35.013Z,92.37
2018-11-01T10:00:04.095Z,90.42
2018-11-01T10:02:32.117Z,92.22
2018-11-01T10:05:00.014Z,93.55
2018-11-01T10:07:28.059Z,97.12
2018-11-01T10:09:56.710Z,89.70
2018-11-01T10:12:24.745Z,85.53
2018-11-01T10:14:53.679Z,86.45
2018-11-01T10:17:21.916Z,83.12
2018-11-01T10:19:49.758Z,82.42
2018-11-01T10:22:17.735Z,81.42
2018-11-01T10:24:45.769Z,80.90
2018-11-01T10:27:19.513Z,77.00
2018-11-01T10:29:41.718Z,76.60
2018-11-01T10:32:09.658Z,76.80
2018-11-01T10:34:37.682Z,79.77
2018-11-01T10:37:05.951Z,81.37
2018-11-01T10:39:34.924Z,79.35
2018-11-01T10:42:03.811Z,78.40
2018-11-01T10:44:34.607Z,81.65
2018-11-01T10:47:03.590Z,81.00
2018-11-01T10:49:32.137Z,80.72
2018-11-01T10:52:00.147Z,76.85
2018-11-01T10:54:28.523Z,76.53
2018-11-01T10:56:56.361Z,80.47
2018-11-01T10:59:24.438Z,80.30
2018-11-01T11:01:57.928Z,78.83
2018-11-01T11:04:35.637Z,79.35
2018-11-01T11:07:04.364Z,81.78
2018-11-01T11:09:32.463Z,77.65
2018-11-01T11:12:00.446Z,80.20
2018-11-01T11:14:28.655Z,83.22
2018-11-01T11:16:56.727Z,85.60
2018-11-01T11:19:24.783Z,83.78
2018-11-01T11:21:53.030Z,85.65
2018-11-01T11:24:21.040Z,84.72
2018-11-01T11:26:49.987Z,82.50
2018-11-01T11:29:18.072Z,83.72
2018-11-01T11:31:46.140Z,87.35
2018-11-01T11:34:13.962Z,89.70
2018-11-01T11:36:43.093Z,89.13
2018-11-01T11:39:12.356Z,89.15
2018-11-01T11:41:40.898Z,87.45
2018-11-01T11:44:12.510Z,86.92
2018-11-01T11:46:40.470Z,89.62
2018-11-01T11:49:08.559Z,85.45
2018-11-01T11:51:37.027Z,89.70
2018-11-01T11:54:05.877Z,88.72
2018-11-01T11:56:33.880Z,93.75
2018-11-01T11:59:02.299Z,92.05
2018-11-01T12:01:30.228Z,93.22
2018-11-01T12:03:58.083Z,94.87
2018-11-01T12:06:26.249Z,93.85
2018-11-01T12:08:54.075Z,96.17
2018-11-01T12:11:22.041Z,93.72
2018-11-01T12:13:49.938Z,95.67
2018-11-01T12:16:17.932Z,91.40
2018-11-01T12:18:45.919Z,95.03
2018-11-01T12:21:14.062Z,92.92
2018-11-01T12:23:42.075Z,97.30
2018-11-01T12:26:10.019Z,94.67
2018-11-01T12:28:38.242Z,95.00
2018-11-01T12:31:06.226Z,94.47
2018-11-01T12:33:34.270Z,93.62
2018-11-01T12:36:02.078Z,94.62
2018-11-01T12:38:29.739Z,93.00
2018-11-01T12:40:57.418Z,94.95
2018-11-01T12:43:25.079Z,93.72
2018-11-01T12:45:52.866Z,97.88
2018-11-01T12:48:20.568Z,96.67
2018-11-01T12:50:48.329Z,93.15
2018-11-01T12:53:16.004Z,95.55
2018-11-01T12:55:43.789Z,90.60
2018-11-01T12:58:11.457Z,97.50
2018-11-01T13:00:39.189Z,98.90
2018-11-01T13:03:07.026Z,96.47
2018-11-01T13:05:35.706Z,89.97
2018-11-01T13:08:03.641Z,88.12
2018-11-01T13:10:31.289Z,88.60
2018-11-01T13:12:59.006Z,90.57
2018-11-01T13:15:26.810Z,93.90
2018-11-01T13:17:54.801Z,88.22
2018-11-01T13:20:22.615Z,86.45
2018-11-01T13:22:50.459Z,88.78
2018-11-01T13:25:18.245Z,89.17
2018-11-01T13:27:45.943Z,87.02
2018-11-01T13:30:15.313Z,86.67
2018-11-01T13:32:44.477Z,89.03
2018-11-01T13:35:12.697Z,92.40
2018-11-01T13:37:40.552Z,94.95
2018-11-01T13:40:09.372Z,90.00
2018-11-01T13:42:36.762Z,93.03
2018-11-01T13:45:05.698Z,94.32
2018-11-01T13:47:33.498Z,95.95
2018-11-01T13:50:01.069Z,96.75
2018-11-01T13:52:28.861Z,93.00
2018-11-01T13:54:56.563Z,92.42
2018-11-01T13:57:24.227Z,92.95
2018-11-01T13:59:51.914Z,94.60
2018-11-01T14:02:19.667Z,94.03
2018-11-01T14:04:47.336Z,95.00
2018-11-01T14:07:21.024Z,94.90
2018-11-01T14:10:01.111Z,93.50
2018-11-01T14:12:30.849Z,93.65
2018-11-01T14:14:59.086Z,96.00
2018-11-01T14:17:26.435Z,97.95
2018-11-01T14:19:54.088Z,95.65
2018-11-01T14:22:21.813Z,96.63
2018-11-01T14:24:50.289Z,94.85
2018-11-01T14:27:18.231Z,94.90
2018-11-01T14:29:46.264Z,95.12
2018-11-01T14:32:13.936Z,92.45
2018-11-01T14:34:41.581Z,93.17
2018-11-01T14:37:09.374Z,92.62
2018-11-01T14:39:37.118Z,97.97
2018-11-01T14:42:05.070Z,94.13
2018-11-01T14:44:34.559Z,94.85
2018-11-01T14:47:02.267Z,96.05
2018-11-01T14:49:29.991Z,92.88
2018-11-01T14:51:57.920Z,92.27
2018-11-01T14:54:26.825Z,98.75
2018-11-01T14:56:54.785Z,94.25
2018-11-01T14:59:23.360Z,101.82
2018-11-01T15:01:49.742Z,94.07
2018-11-01T15:04:17.749Z,91.20
2018-11-01T15:06:45.651Z,89.65
2018-11-01T15:09:13.427Z,88.97
2018-11-01T15:11:41.650Z,88.37
2018-11-01T15:14:09.806Z,93.65
2018-11-01T15:16:38.267Z,92.97
2018-11-01T15:19:06.896Z,89.90
2018-11-01T15:21:35.204Z,87.65
2018-11-01T15:24:02.924Z,89.60
2018-11-01T15:26:30.842Z,86.65
2018-11-01T15:28:58.727Z,86.10
2018-11-01T15:31:26.496Z,85.40
2018-11-01T15:33:55.927Z,86.82
2018-11-01T15:36:23.838Z,83.65
2018-11-01T15:38:51.719Z,83.58
2018-11-01T15:41:19.519Z,79.15
2018-11-01T15:43:47.255Z,81.00
2018-11-01T15:46:14.923Z,79.03
2018-11-01T15:48:42.758Z,78.62
2018-11-01T15:51:11.365Z,87.55
2018-11-01T15:53:39.141Z,89.97
2018-11-01T15:56:07.079Z,82.92
2018-11-01T15:58:34.737Z,84.83
2018-11-01T16:01:03.140Z,85.72
2018-11-01T16:03:31.095Z,89.95
2018-11-01T16:05:58.753Z,88.92
2018-11-01T16:08:26.541Z,89.13
2018-11-01T16:10:56.078Z,91.72
2018-11-01T16:13:23.772Z,94.90
2018-11-01T16:15:52.275Z,104.58
2018-11-01T16:18:20.091Z,107.95
2018-11-01T16:20:47.856Z,114.85
2018-11-01T16:23:16.348Z,116.93
2018-11-01T16:25:44.124Z,117.50
2018-11-01T16:28:11.931Z,121.15
2018-11-01T16:30:40.576Z,114.15
2018-11-01T16:33:08.441Z,114.70
2018-11-01T16:35:37.104Z,115.62
2018-11-01T16:38:04.788Z,122.40
2018-11-01T16:40:32.558Z,112.80
2018-11-01T16:43:00.331Z,110.97
2018-11-01T16:45:28.093Z,116.28
2018-11-01T16:47:56.119Z,117.42
2018-11-01T16:50:23.895Z,113.17
2018-11-01T16:52:51.542Z,112.97
2018-11-01T16:55:19.328Z,114.30
2018-11-01T16:57:47.012Z,113.15
2018-11-01T17:00:14.721Z,113.77
2018-11-01T17:02:42.818Z,113.35
2018-11-01T17:05:43.580Z,119.40
2018-11-01T17:08:12.765Z,115.60
2018-11-01T17:10:41.151Z,124.10
2018-11-01T17:13:09.278Z,111.47
2018-11-01T17:15:37.024Z,109.40
2018-11-01T17:18:04.863Z,111.32
2018-11-01T17:20:33.330Z,115.30
2018-11-01T17:23:01.148Z,112.37
2018-11-01T17:25:28.836Z,116.53
2018-11-01T17:27:57.698Z,116.40
2018-11-01T17:30:25.690Z,117.82
2018-11-01T17:32:55.614Z,115.77
2018-11-01T17:35:23.600Z,116.37
2018-11-01T17:37:51.377Z,122.80
2018-11-01T17:40:19.117Z,114.97
2018-11-01T17:42:46.704Z,110.45
2018-11-01T17:45:14.934Z,119.33
2018-11-01T17:47:43.884Z,117.57
2018-11-01T17:50:13.064Z,116.67
2018-11-01T17:52:42.107Z,122.78
2018-11-01T17:55:13.064Z,118.97
2018-11-01T17:57:41.516Z,119.15
2018-11-01T18:00:10.560Z,114.52
2018-11-01T18:02:39.682Z,125.33
2018-11-01T18:05:09.416Z,124.10
2018-11-01T18:07:37.716Z,112.72
2018-11-01T18:10:06.435Z,115.28
2018-11-01T18:12:34.336Z,119.53
2018-11-01T18:15:02.256Z,120.60
2018-11-01T18:17:31.137Z,116.53
2018-11-01T18:19:58.829Z,114.40
2018-11-01T18:22:26.615Z,114.85
2018-11-01T18:24:55.434Z,115.00
2018-11-01T18:27:23.236Z,112.68
2018-11-01T18:29:51.563Z,115.97
2018-11-01T18:32:20.007Z,116.53
2018-11-01T18:34:47.785Z,111.52
2018-11-01T18:37:15.404Z,114.42
2018-11-01T18:39:43.305Z,114.95
2018-11-01T18:42:11.003Z,113.83
2018-11-01T18:44:39.246Z,114.35
2018-11-01T18:47:09.006Z,114.28
2018-11-01T18:49:36.785Z,112.52
2018-11-01T18:52:04.890Z,116.28
2018-11-01T18:54:33.870Z,116.60
2018-11-01T18:57:01.598Z,116.70
2018-11-01T18:59:29.490Z,116.97
2018-11-01T19:01:57.156Z,119.42
2018-11-01T19:04:25.213Z,110.42
2018-11-01T19:06:53.999Z,112.52
2018-11-01T19:09:21.845Z,111.55
2018-11-01T19:11:49.816Z,114.15
2018-11-01T19:14:17.617Z,111.00
2018-11-01T19:16:45.663Z,116.03
2018-11-01T19:19:13.641Z,114.72
2018-11-01T19:21:41.572Z,114.75
2018-11-01T19:24:09.328Z,119.33
2018-11-01T19:26:37.166Z,106.83
2018-11-01T19:29:05.379Z,111.70
2018-11-01T19:31:33.347Z,106.67
2018-11-01T19:34:01.782Z,108.75
2018-11-01T19:36:30.358Z,110.40
2018-11-01T19:38:58.126Z,118.42
2018-11-01T19:41:26.121Z,115.62
2018-11-01T19:43:53.829Z,115.72
2018-11-01T19:46:21.545Z,118.45
2018-11-01T19:48:49.371Z,112.45
2018-11-01T19:51:17.080Z,110.30
2018-11-01T19:53:44.869Z,111.68
2018-11-01T19:56:13.004Z,112.28
2018-11-01T19:58:40.861Z,113.15
2018-11-01T20:01:08.956Z,114.82
2018-11-01T20:03:37.217Z,110.97
2018-11-01T20:06:05.383Z,115.15
2018-11-01T20:08:44.352Z,115.65
2018-11-01T20:11:12.067Z,117.15
2018-11-01T20:13:50.878Z,115.52
2018-11-01T20:16:18.651Z,115.80
2018-11-01T20:18:46.463Z,114.30
2018-11-01T20:21:14.226Z,112.17
2018-11-01T20:23:42.056Z,113.32
2018-11-01T20:26:10.099Z,115.88
2018-11-01T20:28:41.457Z,119.60
2018-11-01T20:31:10.221Z,120.28
2018-11-01T20:33:37.909Z,115.15
2018-11-01T20:36:05.949Z,116.73
2018-11-01T20:38:34.749Z,117.97
2018-11-01T20:41:04.129Z,114.92
2018-11-01T20:43:32.750Z,123.25
2018-11-01T20:46:07.238Z,119.60
2018-11-01T20:48:38.095Z,110.37
2018-11-01T20:51:05.769Z,107.60
2018-11-01T20:53:33.709Z,111.68
2018-11-01T20:56:01.870Z,108.42
2018-11-01T20:58:29.861Z,107.63
2018-11-01T21:00:57.738Z,108.12
2018-11-01T21:03:25.517Z,109.75
2018-11-01T21:05:53.291Z,115.08
2018-11-01T21:08:21.201Z,109.90
2018-11-01T21:10:52.188Z,109.87
2018-11-01T21:13:21.353Z,112.55
2018-11-01T21:15:49.046Z,109.40
2018-11-01T21:18:20.410Z,111.60
2018-11-01T21:20:49.295Z,109.72
2018-11-01T21:23:16.998Z,108.87
2018-11-01T21:25:45.057Z,104.92
2018-11-01T21:28:12.897Z,110.20
2018-11-01T21:30:40.610Z,108.30
2018-11-01T21:33:08.348Z,109.87
2018-11-01T21:35:40.969Z,108.87
2018-11-01T21:38:09.975Z,111.65
2018-11-01T21:40:38.771Z,113.83
2018-11-01T21:43:07.442Z,116.08
2018-11-01T21:45:35.124Z,110.25
2018-11-01T21:48:04.005Z,108.32
2018-11-01T21:50:32.080Z,114.28
2018-11-01T21:52:59.975Z,110.68
2018-11-01T21:55:28.512Z,112.68
2018-11-01T21:57:56.198Z,110.42
2018-11-01T22:00:24.688Z,114.03
2018-11-01T22:02:56.602Z,108.90
2018-11-01T22:05:24.311Z,109.95
2018-11-01T22:07:51.993Z,107.50
2018-11-01T22:10:20.365Z,111.10
2018-11-01T22:12:48.221Z,106.00
2018-11-01T22:15:16.650Z,110.32
2018-11-01T22:17:44.567Z,108.55
2018-11-01T22:20:12.407Z,108.55
2018-11-01T22:22:49.147Z,109.00
2018-11-01T22:25:16.885Z,108.37
2018-11-01T22:27:44.558Z,111.77
2018-11-01T22:30:13.243Z,107.25
2018-11-01T22:32:41.892Z,106.70
2018-11-01T22:35:09.881Z,108.10
2018-11-01T22:37:38.114Z,106.97
2018-11-01T22:40:06.176Z,104.87
2018-11-01T22:42:33.833Z,111.60
2018-11-01T22:45:01.571Z,106.52
2018-11-01T22:47:29.479Z,104.23
2018-11-01T22:49:57.175Z,103.22
2018-11-01T22:52:24.881Z,102.30
2018-11-01T22:54:52.550Z,99.65
2018-11-01T22:57:20.217Z,99.42
2018-11-01T22:59:48.205Z,98.22
2018-11-01T23:02:15.881Z,101.07
2018-11-01T23:04:43.650Z,95.83
2018-11-01T23:07:11.350Z,94.05
2018-11-01T23:09:39.645Z,93.72
2018-11-01T23:12:07.363Z,94.77
2018-11-01T23:14:35.109Z,93.75
2018-11-01T23:17:03.757Z,94.35
2018-11-01T23:19:31.609Z,94.90
2018-11-01T23:21:59.278Z,94.32
2018-11-01T23:24:26.861Z,96.50
2018-11-01T23:26:54.559Z,90.28
2018-11-01T23:29:22.234Z,90.35
2018-11-01T23:31:50.296Z,92.45
2018-11-01T23:34:17.941Z,91.20
2018-11-01T23:36:51.286Z,89.28
2018-11-01T23:39:24.829Z,86.05
2018-11-01T23:41:58.398Z,83.30
2018-11-01T23:44:31.699Z,85.57
2018-11-01T23:47:05.010Z,82.30
2018-11-01T23:49:39.159Z,80.83
2018-11-01T23:52:13.479Z,81.60
2018-11-01T23:54:41.114Z,82.97
2018-11-01T23:57:08.766Z,60.80
2018-11-01T23:59:36.503Z,82.20
